CheckWX is a tool to help pilots better visualize weather data.  It is not intended as a substitute for an official pre-flight weather briefing.

07:13:55 UTC

UWLW TAF
Ulyanovsk East Airport
Ulyanovsk, Russian Federation
TAF UWLW 170445Z 1706/1806 27003MPS 8000 SCT033 TEMPO 1706/1715 32005G10MPS BKN020CB

Jun-17@
06:00 UTC

Jun-17 @ 06:00 UTC

Jun-18@
06:00 UTC

Jun-18 @ 06:00 UTC

TAF UWLW 170445Z 1706/1806 27003MPS 8000 SCT033
Wind
  • 270° at 6 KTS
Cloud Levels
  • Scattered at 3,300' AGL

Jun-17@
06:00 UTC

Jun-17 @ 06:00 UTC

Jun-17@
15:00 UTC

Jun-17 @ 15:00 UTC

TEMPO 1706/1715 32005G10MPS BKN020CB

Temporary

Temporary Changes expected for less than half the time period

Wind
  • 320° at 10 KTS
  • {Gusting to 19 KTS
Cloud Levels
  • Broken at 2,000' AGL